createdAt,value
2023-05-26T00:01:21.528Z,53.60
2023-05-26T00:03:50.358Z,46.58
2023-05-26T00:06:17.853Z,46.15
2023-05-26T00:08:45.507Z,41.72
2023-05-26T00:11:13.217Z,41.10
2023-05-26T00:13:40.612Z,47.38
2023-05-26T00:16:07.965Z,37.83
2023-05-26T00:18:35.545Z,41.58
2023-05-26T00:21:02.989Z,42.83
2023-05-26T00:23:30.360Z,34.28
2023-05-26T00:25:57.951Z,45.35
2023-05-26T00:28:25.247Z,46.88
2023-05-26T00:30:52.667Z,52.60
2023-05-26T00:33:20.376Z,39.30
2023-05-26T00:35:47.907Z,45.00
2023-05-26T00:38:15.539Z,41.20
2023-05-26T00:40:43.205Z,35.72
2023-05-26T00:43:10.588Z,38.97
2023-05-26T00:45:38.077Z,44.20
2023-05-26T00:48:06.793Z,46.25
2023-05-26T00:50:35.586Z,41.50
2023-05-26T00:53:04.933Z,33.95
2023-05-26T00:55:33.750Z,47.08
2023-05-26T00:58:01.369Z,28.10
2023-05-26T01:00:29.303Z,37.13
2023-05-26T01:02:58.387Z,43.55
2023-05-26T01:05:26.471Z,54.42
2023-05-26T01:07:55.037Z,29.42
2023-05-26T01:10:22.803Z,43.97
2023-05-26T01:13:02.999Z,49.83
2023-05-26T01:15:35.277Z,49.25
2023-05-26T01:18:10.428Z,75.43
2023-05-26T01:20:47.406Z,37.15
2023-05-26T01:23:33.666Z,43.28
2023-05-26T01:26:15.380Z,52.70
2023-05-26T01:28:45.000Z,32.70
2023-05-26T01:31:14.008Z,40.88
2023-05-26T01:33:42.907Z,36.65
2023-05-26T01:36:11.495Z,33.15
2023-05-26T01:38:40.365Z,46.70
2023-05-26T01:41:36.096Z,34.83
2023-05-26T01:44:09.883Z,48.53
2023-05-26T01:46:46.149Z,43.38
2023-05-26T01:49:17.806Z,47.77
2023-05-26T01:51:57.457Z,51.92
2023-05-26T01:54:28.327Z,50.35
2023-05-26T01:56:57.806Z,55.45
2023-05-26T01:59:26.294Z,49.42
2023-05-26T02:01:53.773Z,46.53
2023-05-26T02:04:21.361Z,46.35
2023-05-26T02:06:48.726Z,40.22
2023-05-26T02:09:16.757Z,41.17
2023-05-26T02:11:44.069Z,41.58
2023-05-26T02:14:11.518Z,41.92
2023-05-26T02:16:39.021Z,37.05
2023-05-26T02:19:08.744Z,50.70
2023-05-26T02:21:36.928Z,41.47
2023-05-26T02:24:04.445Z,38.13
2023-05-26T02:26:32.293Z,53.63
2023-05-26T02:28:59.678Z,42.90
2023-05-26T02:31:27.164Z,54.60
2023-05-26T02:33:55.580Z,53.15
2023-05-26T02:36:23.064Z,53.95
2023-05-26T02:38:50.803Z,40.45
2023-05-26T02:41:18.457Z,36.67
2023-05-26T02:43:46.963Z,37.17
2023-05-26T02:46:15.055Z,43.47
2023-05-26T02:48:43.034Z,53.13
2023-05-26T02:51:10.364Z,42.72
2023-05-26T02:53:39.771Z,39.58
2023-05-26T02:56:08.034Z,55.00
2023-05-26T02:58:35.552Z,44.42
2023-05-26T03:01:04.023Z,38.90
2023-05-26T03:03:31.609Z,33.75
2023-05-26T03:05:59.871Z,45.97
2023-05-26T03:08:28.335Z,47.22
2023-05-26T03:11:09.314Z,34.22
2023-05-26T03:13:40.070Z,50.30
2023-05-26T03:16:08.014Z,51.63
2023-05-26T03:18:35.998Z,41.80
2023-05-26T03:21:06.500Z,37.78
2023-05-26T03:23:36.366Z,32.65
2023-05-26T03:26:05.223Z,60.75
2023-05-26T03:28:34.770Z,40.53
2023-05-26T03:31:02.618Z,39.30
2023-05-26T03:33:32.397Z,39.17
2023-05-26T03:36:01.358Z,50.42
2023-05-26T03:38:29.600Z,37.60
2023-05-26T03:41:00.503Z,41.05
2023-05-26T03:43:28.122Z,52.03
2023-05-26T03:45:55.804Z,33.05
2023-05-26T03:48:23.227Z,27.10
2023-05-26T03:50:50.996Z,49.22
2023-05-26T03:53:18.990Z,49.58
2023-05-26T03:55:46.576Z,36.28
2023-05-26T03:58:14.173Z,42.28
2023-05-26T04:00:41.494Z,51.72
2023-05-26T04:03:08.928Z,35.28
2023-05-26T04:05:36.832Z,29.23
2023-05-26T04:08:04.189Z,55.78
2023-05-26T04:10:31.548Z,52.53
2023-05-26T04:12:59.434Z,51.40
2023-05-26T04:15:26.817Z,29.77
2023-05-26T04:17:54.290Z,41.40
2023-05-26T04:20:21.809Z,50.22
2023-05-26T04:22:49.407Z,36.38
2023-05-26T04:25:17.911Z,39.63
2023-05-26T04:27:50.445Z,41.30
2023-05-26T04:30:31.489Z,46.72
2023-05-26T04:33:21.880Z,41.65
2023-05-26T04:36:09.805Z,37.45
2023-05-26T04:38:39.200Z,46.25
2023-05-26T04:41:08.367Z,48.03
2023-05-26T04:43:36.183Z,41.47
2023-05-26T04:46:04.442Z,37.55
2023-05-26T04:48:33.546Z,39.88
2023-05-26T04:51:00.974Z,40.20
2023-05-26T04:53:28.484Z,35.33
2023-05-26T04:55:55.902Z,40.75
2023-05-26T04:58:23.816Z,42.15
2023-05-26T05:00:51.760Z,43.67
2023-05-26T05:03:37.819Z,38.97
2023-05-26T05:06:09.141Z,48.90
2023-05-26T05:08:38.711Z,38.15
2023-05-26T05:11:06.531Z,39.10
2023-05-26T05:13:34.650Z,37.85
2023-05-26T05:16:04.656Z,36.22
2023-05-26T05:18:32.303Z,35.67
2023-05-26T05:20:59.990Z,31.40
2023-05-26T05:23:28.109Z,38.47
2023-05-26T05:25:57.032Z,40.90
2023-05-26T05:28:24.915Z,34.60
2023-05-26T05:31:08.878Z,46.58
2023-05-26T05:33:39.603Z,39.03
2023-05-26T05:36:07.415Z,38.58
2023-05-26T05:38:34.796Z,41.08
2023-05-26T05:41:02.599Z,45.38
2023-05-26T05:43:30.164Z,42.80
2023-05-26T05:45:58.206Z,50.38
2023-05-26T05:48:44.251Z,56.30
2023-05-26T05:51:18.317Z,43.58
2023-05-26T05:53:46.408Z,32.13
2023-05-26T05:56:14.535Z,40.92
2023-05-26T05:58:41.922Z,34.13
2023-05-26T06:01:09.382Z,54.38
2023-05-26T06:03:37.523Z,46.20
2023-05-26T06:06:06.519Z,31.65
2023-05-26T06:08:33.889Z,41.13
2023-05-26T06:11:01.688Z,29.88
2023-05-26T06:13:33.461Z,48.42
2023-05-26T06:16:00.879Z,38.78
2023-05-26T06:18:28.335Z,41.70
2023-05-26T06:20:56.123Z,43.03
2023-05-26T06:23:24.356Z,38.88
2023-05-26T06:25:53.817Z,38.15
2023-05-26T06:28:23.717Z,31.73
2023-05-26T06:30:51.852Z,30.35
2023-05-26T06:33:32.328Z,37.90
2023-05-26T06:36:01.167Z,30.58
2023-05-26T06:38:28.968Z,39.88
2023-05-26T06:41:01.529Z,40.92
2023-05-26T06:43:29.273Z,37.08
2023-05-26T06:45:57.130Z,33.42
2023-05-26T06:48:25.247Z,36.40
2023-05-26T06:51:15.508Z,42.45
2023-05-26T06:53:43.188Z,52.95
2023-05-26T06:56:13.242Z,33.08
2023-05-26T06:58:40.746Z,34.85
2023-05-26T07:01:09.476Z,41.65
2023-05-26T07:03:40.396Z,24.17
2023-05-26T07:06:08.631Z,30.45
2023-05-26T07:08:39.198Z,35.33
2023-05-26T07:11:20.304Z,23.02
2023-05-26T07:13:54.022Z,40.97
2023-05-26T07:16:22.799Z,31.55
2023-05-26T07:18:50.386Z,39.15
2023-05-26T07:21:20.236Z,29.17
2023-05-26T07:23:49.843Z,41.88
2023-05-26T07:26:17.357Z,35.75
2023-05-26T07:28:45.911Z,35.35
2023-05-26T07:31:13.545Z,34.13
2023-05-26T07:33:43.286Z,31.90
2023-05-26T07:36:12.307Z,10.50
2023-05-26T07:38:40.003Z,32.80
2023-05-26T07:41:09.791Z,30.23
2023-05-26T07:43:37.162Z,47.53
2023-05-26T07:46:04.825Z,26.75
2023-05-26T07:48:32.253Z,39.78
2023-05-26T07:51:00.058Z,42.03
2023-05-26T07:53:27.616Z,42.13
2023-05-26T07:55:55.125Z,55.75
2023-05-26T07:58:22.970Z,29.98
2023-05-26T08:00:50.402Z,44.90
2023-05-26T08:03:18.274Z,40.10
2023-05-26T08:05:46.639Z,35.40
2023-05-26T08:08:14.201Z,37.50
2023-05-26T08:10:41.656Z,30.35
2023-05-26T08:13:10.321Z,26.80
2023-05-26T08:15:38.245Z,36.40
2023-05-26T08:18:05.959Z,25.90
2023-05-26T08:20:36.299Z,37.75
2023-05-26T08:23:04.216Z,28.60
2023-05-26T08:25:32.048Z,40.88
2023-05-26T08:27:59.392Z,31.92
2023-05-26T08:30:27.602Z,30.35
2023-05-26T08:32:55.242Z,35.53
2023-05-26T08:35:22.779Z,21.90
2023-05-26T08:37:51.480Z,52.13
2023-05-26T08:40:19.025Z,32.17
2023-05-26T08:42:50.592Z,38.63
2023-05-26T08:45:21.547Z,32.95
2023-05-26T08:47:51.069Z,41.97
2023-05-26T08:50:20.710Z,33.20
2023-05-26T08:55:37.295Z,29.67
2023-05-26T08:58:05.582Z,34.30
2023-05-26T09:00:34.391Z,28.50
2023-05-26T09:03:04.297Z,36.22
2023-05-26T09:05:31.934Z,34.95
2023-05-26T09:07:59.634Z,34.10
2023-05-26T09:10:30.444Z,28.45
2023-05-26T09:13:07.642Z,32.88
2023-05-26T09:15:37.602Z,32.05
2023-05-26T09:18:07.795Z,29.63
2023-05-26T09:20:41.997Z,35.17
2023-05-26T09:23:10.557Z,17.63
2023-05-26T09:25:39.700Z,26.55
2023-05-26T09:28:09.554Z,24.05
2023-05-26T09:30:38.098Z,26.05
2023-05-26T09:33:16.232Z,34.70
2023-05-26T09:35:45.832Z,26.38
2023-05-26T09:38:18.472Z,24.17
2023-05-26T09:40:48.144Z,29.73
2023-05-26T09:43:19.715Z,27.88
2023-05-26T09:45:47.174Z,32.28
2023-05-26T09:48:16.069Z,22.08
2023-05-26T09:50:43.805Z,34.83
2023-05-26T09:53:11.989Z,34.05
2023-05-26T09:55:41.718Z,25.30
2023-05-26T09:58:11.499Z,40.75
2023-05-26T10:00:43.772Z,22.45
2023-05-26T10:03:12.341Z,34.75
2023-05-26T10:05:46.564Z,35.03
2023-05-26T10:08:20.630Z,30.25
2023-05-26T10:10:51.697Z,28.88
2023-05-26T10:13:20.689Z,27.25
2023-05-26T10:15:49.292Z,34.38
2023-05-26T10:18:16.862Z,22.77
2023-05-26T10:20:48.864Z,17.35
2023-05-26T10:23:28.168Z,29.55
2023-05-26T10:26:10.076Z,24.40
2023-05-26T10:28:50.926Z,24.63
2023-05-26T10:31:32.517Z,33.17
2023-05-26T10:34:00.368Z,24.67
2023-05-26T10:36:29.685Z,28.42
2023-05-26T10:38:57.199Z,31.98
2023-05-26T10:41:30.531Z,25.65
2023-05-26T10:43:59.219Z,30.77
2023-05-26T10:46:38.674Z,31.60
2023-05-26T10:49:20.764Z,25.95
2023-05-26T10:51:54.315Z,27.05
2023-05-26T10:54:25.692Z,38.53
2023-05-26T10:56:54.583Z,17.20
2023-05-26T10:59:33.412Z,25.38
2023-05-26T11:02:05.909Z,24.63
2023-05-26T11:04:44.472Z,21.63
2023-05-26T11:07:21.980Z,30.10
2023-05-26T11:10:03.071Z,39.72
2023-05-26T11:12:35.080Z,29.50
2023-05-26T11:15:34.115Z,21.85
2023-05-26T11:18:09.482Z,24.60
2023-05-26T11:20:37.872Z,24.73
2023-05-26T11:23:05.253Z,27.58
2023-05-26T11:25:48.072Z,23.30
2023-05-26T11:28:19.837Z,25.42
2023-05-26T11:30:47.136Z,29.92
2023-05-26T11:33:15.893Z,25.30
2023-05-26T11:35:43.720Z,23.25
2023-05-26T11:38:11.265Z,31.67
2023-05-26T11:40:38.899Z,23.17
2023-05-26T11:43:06.344Z,25.83
2023-05-26T11:45:35.174Z,22.10
2023-05-26T11:48:02.557Z,22.42
2023-05-26T11:50:29.984Z,27.42
2023-05-26T11:52:57.349Z,29.48
2023-05-26T11:55:24.780Z,26.75
2023-05-26T11:57:52.551Z,27.75
2023-05-26T12:00:20.662Z,28.65
2023-05-26T12:02:48.742Z,24.90
2023-05-26T12:05:20.980Z,25.98
2023-05-26T12:08:05.403Z,19.17
2023-05-26T12:10:33.578Z,40.22
2023-05-26T12:13:01.575Z,26.70
2023-05-26T12:15:29.028Z,24.48
2023-05-26T12:18:01.649Z,13.68
2023-05-26T12:23:03.944Z,33.55
2023-05-26T12:25:32.749Z,22.25
2023-05-26T12:28:00.692Z,20.50
2023-05-26T12:30:44.210Z,30.83
2023-05-26T12:33:16.827Z,15.85
2023-05-26T12:35:44.162Z,19.13
2023-05-26T12:38:15.031Z,23.15
2023-05-26T12:40:43.074Z,24.20
2023-05-26T12:43:10.735Z,27.15
2023-05-26T12:45:38.094Z,25.75
2023-05-26T12:48:05.656Z,20.02
2023-05-26T12:50:33.026Z,23.35
2023-05-26T12:53:00.515Z,23.58
2023-05-26T12:55:27.952Z,16.10
2023-05-26T12:57:55.271Z,15.55
2023-05-26T13:00:22.827Z,35.00
2023-05-26T13:02:50.775Z,19.67
2023-05-26T13:05:19.375Z,20.77
2023-05-26T13:07:46.719Z,22.00
2023-05-26T13:10:14.029Z,25.52
2023-05-26T13:12:42.617Z,15.65
2023-05-26T13:15:10.552Z,19.63
2023-05-26T13:17:38.031Z,27.73
2023-05-26T13:20:06.890Z,15.32
2023-05-26T13:22:37.147Z,19.02
2023-05-26T13:25:04.857Z,21.08
2023-05-26T13:27:32.172Z,18.05
2023-05-26T13:29:59.510Z,19.05
2023-05-26T13:32:27.008Z,19.90
2023-05-26T13:34:54.319Z,14.27
2023-05-26T13:37:22.204Z,18.45
2023-05-26T13:39:49.727Z,17.75
2023-05-26T13:42:17.109Z,17.73
2023-05-26T13:44:44.791Z,26.10
2023-05-26T13:47:12.147Z,20.63
2023-05-26T13:49:39.497Z,26.40
2023-05-26T13:52:07.474Z,20.40
2023-05-26T13:54:34.841Z,39.53
2023-05-26T13:57:02.458Z,26.77
2023-05-26T13:59:31.255Z,21.85
2023-05-26T14:01:58.714Z,15.18
2023-05-26T14:04:27.571Z,13.38
2023-05-26T14:07:04.243Z,18.50
2023-05-26T14:09:42.013Z,18.33
2023-05-26T14:12:09.685Z,11.77
2023-05-26T14:14:37.702Z,16.75
2023-05-26T14:17:05.247Z,18.40
2023-05-26T14:19:32.811Z,23.67
2023-05-26T14:22:01.709Z,22.27
2023-05-26T14:24:33.095Z,16.30
2023-05-26T14:27:00.560Z,14.65
2023-05-26T14:29:28.397Z,26.45
2023-05-26T14:31:56.024Z,20.65
2023-05-26T14:34:23.391Z,14.27
2023-05-26T14:36:51.166Z,18.65
2023-05-26T14:39:18.702Z,16.40
2023-05-26T14:41:46.036Z,11.85
2023-05-26T14:44:13.555Z,17.85
2023-05-26T14:46:41.252Z,11.38
2023-05-26T14:49:11.767Z,12.05
2023-05-26T14:51:39.461Z,16.88
2023-05-26T14:54:07.543Z,21.95
2023-05-26T14:56:35.579Z,19.48
2023-05-26T14:59:03.545Z,18.00
2023-05-26T15:01:31.017Z,13.75
2023-05-26T15:04:13.566Z,22.27
2023-05-26T15:06:43.148Z,22.48
2023-05-26T15:09:10.619Z,17.65
2023-05-26T15:11:42.337Z,19.33
2023-05-26T15:14:10.993Z,10.82
2023-05-26T15:16:39.829Z,23.08
2023-05-26T15:19:07.329Z,18.40
2023-05-26T15:21:38.680Z,16.80
2023-05-26T15:24:08.086Z,12.95
2023-05-26T15:26:36.153Z,15.45
2023-05-26T15:29:03.780Z,20.70
2023-05-26T15:31:31.423Z,21.52
2023-05-26T15:33:59.153Z,11.98
2023-05-26T15:36:26.926Z,23.33
2023-05-26T15:38:54.784Z,17.23
2023-05-26T15:41:26.217Z,20.77
2023-05-26T15:43:55.372Z,22.63
2023-05-26T15:46:22.802Z,26.30
2023-05-26T15:48:50.289Z,21.85
2023-05-26T15:51:17.888Z,19.23
2023-05-26T15:53:45.477Z,17.33
2023-05-26T15:56:12.949Z,20.52
2023-05-26T15:58:40.484Z,32.25
2023-05-26T16:01:08.008Z,24.75
2023-05-26T16:03:35.830Z,25.90
2023-05-26T16:06:04.532Z,25.23
2023-05-26T16:08:31.859Z,19.67
2023-05-26T16:10:59.545Z,26.20
2023-05-26T16:13:27.153Z,26.63
2023-05-26T16:15:54.937Z,19.08
2023-05-26T16:18:22.349Z,22.00
2023-05-26T16:20:50.027Z,24.77
2023-05-26T16:23:17.664Z,20.58
2023-05-26T16:25:46.256Z,38.50
2023-05-26T16:28:13.667Z,25.52
2023-05-26T16:30:41.414Z,24.15
2023-05-26T16:33:08.747Z,21.38
2023-05-26T16:35:50.322Z,26.17
2023-05-26T16:38:18.985Z,24.80
2023-05-26T16:40:46.637Z,19.50
2023-05-26T16:43:17.049Z,34.78
2023-05-26T16:45:47.391Z,34.78
2023-05-26T16:48:14.798Z,35.50
2023-05-26T16:50:42.174Z,25.05
2023-05-26T16:53:11.100Z,24.92
2023-05-26T16:55:38.646Z,24.30
2023-05-26T16:58:07.309Z,23.90
2023-05-26T17:00:34.647Z,23.48
2023-05-26T17:03:02.330Z,23.48
2023-05-26T17:05:29.757Z,21.00
2023-05-26T17:07:59.063Z,21.85
2023-05-26T17:10:28.712Z,21.85
2023-05-26T17:12:57.758Z,25.20
2023-05-26T17:15:25.360Z,23.95
2023-05-26T17:17:53.009Z,30.52
2023-05-26T17:20:20.562Z,18.20
2023-05-26T17:22:48.232Z,23.75
2023-05-26T17:25:15.995Z,24.92
2023-05-26T17:27:43.382Z,26.02
2023-05-26T17:30:11.070Z,24.05
2023-05-26T17:32:38.455Z,24.25
2023-05-26T17:35:06.649Z,19.25
2023-05-26T17:37:34.144Z,24.38
2023-05-26T17:40:01.601Z,27.38
2023-05-26T17:42:28.937Z,24.08
2023-05-26T17:44:56.361Z,24.20
2023-05-26T17:47:27.711Z,28.08
2023-05-26T17:49:58.303Z,13.30
2023-05-26T17:52:25.955Z,22.38
2023-05-26T17:54:53.493Z,25.38
2023-05-26T17:57:20.838Z,30.73
2023-05-26T17:59:48.194Z,32.25
2023-05-26T18:02:15.745Z,22.17
2023-05-26T18:04:43.670Z,28.25
2023-05-26T18:07:11.605Z,27.15
2023-05-26T18:09:40.884Z,34.35
2023-05-26T18:12:11.264Z,28.23
2023-05-26T18:14:38.648Z,28.05
2023-05-26T18:17:05.988Z,24.58
2023-05-26T18:19:33.556Z,29.90
2023-05-26T18:22:01.894Z,35.05
2023-05-26T18:24:29.594Z,27.75
2023-05-26T18:26:57.164Z,24.98
2023-05-26T18:29:24.502Z,31.02
2023-05-26T18:31:52.032Z,28.17
2023-05-26T18:34:25.506Z,27.98
2023-05-26T18:36:53.456Z,22.27
2023-05-26T18:39:20.813Z,20.17
2023-05-26T18:41:48.151Z,30.60
2023-05-26T18:44:15.935Z,26.27
2023-05-26T18:46:43.230Z,33.50
2023-05-26T18:49:11.649Z,33.20
2023-05-26T18:51:39.057Z,22.25
2023-05-26T18:54:06.530Z,33.50
2023-05-26T18:56:33.858Z,18.50
2023-05-26T18:59:01.539Z,44.60
2023-05-26T19:01:28.911Z,30.52
2023-05-26T19:03:58.235Z,39.47
2023-05-26T19:06:25.760Z,28.42
2023-05-26T19:08:53.227Z,27.77
2023-05-26T19:11:20.674Z,42.35
2023-05-26T19:13:48.035Z,23.50
2023-05-26T19:16:15.811Z,29.08
2023-05-26T19:18:43.153Z,29.35
2023-05-26T19:21:10.502Z,25.60
2023-05-26T19:23:37.767Z,22.25
2023-05-26T19:26:05.148Z,27.02
2023-05-26T19:28:32.666Z,16.40
2023-05-26T19:31:00.568Z,28.75
2023-05-26T19:33:27.981Z,16.85
2023-05-26T19:35:55.615Z,27.05
2023-05-26T19:38:22.970Z,20.25
2023-05-26T19:40:50.259Z,20.52
2023-05-26T19:43:18.109Z,23.00
2023-05-26T19:45:45.358Z,24.15
2023-05-26T19:48:12.867Z,18.75
2023-05-26T19:50:40.790Z,27.17
2023-05-26T19:53:08.077Z,25.83
2023-05-26T19:55:35.414Z,25.50
2023-05-26T19:58:02.837Z,29.48
2023-05-26T20:00:30.186Z,25.52
2023-05-26T20:02:57.820Z,27.63
2023-05-26T20:05:25.540Z,39.38
2023-05-26T20:07:52.869Z,43.38
2023-05-26T20:10:20.340Z,29.38
2023-05-26T20:12:47.808Z,24.15
2023-05-26T20:15:15.791Z,27.13
2023-05-26T20:17:43.184Z,28.30
2023-05-26T20:20:14.453Z,39.72
2023-05-26T20:22:43.841Z,22.80
2023-05-26T20:25:11.886Z,25.38
2023-05-26T20:27:39.665Z,24.02
2023-05-26T20:30:08.121Z,26.50
2023-05-26T20:32:36.629Z,21.77
2023-05-26T20:35:04.977Z,41.05
2023-05-26T20:37:32.746Z,27.10
2023-05-26T20:40:01.431Z,31.77
2023-05-26T20:42:33.761Z,37.25
2023-05-26T20:45:04.152Z,41.42
2023-05-26T20:47:31.985Z,71.10
2023-05-26T20:49:59.383Z,52.50
2023-05-26T20:52:26.787Z,39.03
2023-05-26T20:54:54.622Z,37.75
2023-05-26T20:57:22.604Z,27.25
2023-05-26T20:59:50.121Z,29.90
2023-05-26T21:02:17.742Z,41.60
2023-05-26T21:04:45.377Z,31.67
2023-05-26T21:07:13.055Z,38.05
2023-05-26T21:09:40.509Z,42.97
2023-05-26T21:12:08.030Z,32.15
2023-05-26T21:14:36.509Z,35.92
2023-05-26T21:17:04.094Z,41.40
2023-05-26T21:19:31.768Z,33.45
2023-05-26T21:21:59.121Z,31.92
2023-05-26T21:24:26.496Z,28.08
2023-05-26T21:26:54.096Z,32.95
2023-05-26T21:29:21.464Z,49.00
2023-05-26T21:31:48.863Z,31.90
2023-05-26T21:34:16.710Z,45.10
2023-05-26T21:36:43.903Z,40.70
2023-05-26T21:39:11.465Z,28.58
2023-05-26T21:41:39.625Z,38.08
2023-05-26T21:44:07.893Z,41.80
2023-05-26T21:46:35.377Z,28.25
2023-05-26T21:49:02.886Z,40.42
2023-05-26T21:51:30.388Z,25.13
2023-05-26T21:53:57.726Z,37.92
2023-05-26T21:56:26.120Z,37.50
2023-05-26T21:58:53.607Z,34.00
2023-05-26T22:01:21.959Z,44.65
2023-05-26T22:03:49.388Z,28.75
2023-05-26T22:06:16.887Z,39.05
2023-05-26T22:08:44.353Z,48.58
2023-05-26T22:11:12.115Z,35.38
2023-05-26T22:13:39.830Z,50.78
2023-05-26T22:16:07.201Z,49.45
2023-05-26T22:18:34.691Z,35.65
2023-05-26T22:21:02.297Z,32.20
2023-05-26T22:23:29.824Z,42.83
2023-05-26T22:25:57.468Z,37.75
2023-05-26T22:28:24.945Z,72.55
2023-05-26T22:31:00.018Z,37.42
2023-05-26T22:33:27.535Z,36.75
2023-05-26T22:35:55.412Z,39.22
2023-05-26T22:38:23.164Z,36.63
2023-05-26T22:40:50.662Z,38.08
2023-05-26T22:43:18.259Z,41.88
2023-05-26T22:45:45.740Z,44.17
2023-05-26T22:48:13.887Z,44.05
2023-05-26T22:50:41.595Z,42.45
2023-05-26T22:53:09.107Z,43.00
2023-05-26T22:55:47.109Z,33.63
2023-05-26T22:58:18.843Z,38.22
2023-05-26T23:00:46.740Z,41.85
2023-05-26T23:03:14.335Z,36.38
2023-05-26T23:05:41.726Z,32.72
2023-05-26T23:08:09.276Z,45.17
2023-05-26T23:10:37.731Z,43.80
2023-05-26T23:13:05.139Z,31.50
2023-05-26T23:15:32.564Z,36.33
2023-05-26T23:18:00.052Z,22.20
2023-05-26T23:20:27.784Z,49.58
2023-05-26T23:22:55.313Z,44.80
2023-05-26T23:25:22.691Z,47.63
2023-05-26T23:27:50.094Z,44.80
2023-05-26T23:30:17.619Z,28.35
2023-05-26T23:32:45.065Z,40.67
2023-05-26T23:35:12.460Z,28.60
2023-05-26T23:37:39.952Z,27.80
2023-05-26T23:40:08.724Z,36.17
2023-05-26T23:42:36.393Z,34.80
2023-05-26T23:45:04.222Z,47.88
2023-05-26T23:47:31.738Z,32.80
2023-05-26T23:49:59.166Z,28.52
2023-05-26T23:52:26.610Z,36.65
2023-05-26T23:54:53.930Z,37.20
2023-05-26T23:57:21.745Z,31.60
2023-05-26T23:59:48.922Z,37.95
